createdAt,value
2017-11-17T00:00:55.063Z,7.39
2017-11-17T00:01:40.445Z,7.46
2017-11-17T00:02:55.109Z,7.42
2017-11-17T00:03:40.446Z,7.35
2017-11-17T00:04:40.491Z,7.37
2017-11-17T00:05:40.495Z,7.32
2017-11-17T00:06:40.513Z,7.35
2017-11-17T00:07:40.530Z,7.46
2017-11-17T00:08:40.572Z,7.39
2017-11-17T00:10:40.585Z,7.37
2017-11-17T00:11:55.270Z,7.37
2017-11-17T00:12:40.627Z,7.37
2017-11-17T00:13:40.636Z,7.31
2017-11-17T00:14:55.320Z,7.27
2017-11-17T00:15:55.347Z,7.25
2017-11-17T00:16:40.680Z,7.25
2017-11-17T00:17:40.707Z,7.23
2017-11-17T00:18:40.740Z,7.24
2017-11-17T00:19:55.144Z,7.24
2017-11-17T00:21:40.792Z,7.24
2017-11-17T00:22:40.793Z,7.39
2017-11-17T00:23:40.801Z,7.4
2017-11-17T00:24:40.842Z,7.4
2017-11-17T00:25:40.588Z,7.32
2017-11-17T00:26:40.865Z,7.39
2017-11-17T00:27:40.884Z,7.32
2017-11-17T00:28:55.309Z,7.43
2017-11-17T00:29:40.922Z,7.45
2017-11-17T00:31:40.972Z,7.45
2017-11-17T00:32:41.021Z,7.37
2017-11-17T00:33:40.741Z,7.35
2017-11-17T00:34:41.029Z,7.32
2017-11-17T00:35:41.023Z,7.37
2017-11-17T00:36:41.056Z,7.35
2017-11-17T00:37:41.073Z,7.37
2017-11-17T00:38:41.096Z,7.49
2017-11-17T00:39:41.101Z,7.42
2017-11-17T00:40:41.123Z,7.4
2017-11-17T00:41:41.152Z,7.39
2017-11-17T00:42:41.151Z,7.35
2017-11-17T00:43:41.178Z,7.34
2017-11-17T00:44:40.661Z,7.39
2017-11-17T00:45:41.215Z,7.32
2017-11-17T00:46:55.626Z,7.4
2017-11-17T00:47:55.905Z,7.39
2017-11-17T00:49:41.002Z,7.37
2017-11-17T00:50:41.296Z,7.42
2017-11-17T00:51:55.982Z,7.45
2017-11-17T00:52:41.322Z,7.48
2017-11-17T00:53:41.338Z,7.53
2017-11-17T00:54:56.030Z,7.5
2017-11-17T00:55:41.362Z,7.63
2017-11-17T00:57:41.403Z,7.52
2017-11-17T00:58:41.424Z,7.52
2017-11-17T00:59:41.449Z,7.46
2017-11-17T01:00:41.462Z,7.52
2017-11-17T01:01:41.483Z,7.53
2017-11-17T01:02:41.499Z,7.45
2017-11-17T01:03:56.176Z,7.5
2017-11-17T01:04:56.197Z,7.46
2017-11-17T01:05:41.546Z,7.46
2017-11-17T01:06:41.585Z,7.53
2017-11-17T01:07:41.598Z,7.52
2017-11-17T01:08:41.600Z,7.52
2017-11-17T01:09:41.629Z,7.49
2017-11-17T01:10:41.633Z,7.63
2017-11-17T01:12:41.424Z,7.6
2017-11-17T01:13:56.364Z,7.6
2017-11-17T01:14:41.708Z,7.6
2017-11-17T01:15:41.737Z,7.67
2017-11-17T01:16:41.750Z,7.48
2017-11-17T01:17:41.770Z,7.53
2017-11-17T01:18:41.779Z,7.61
2017-11-17T01:19:56.469Z,7.64
2017-11-17T01:20:41.813Z,7.55
2017-11-17T01:21:41.863Z,7.61
2017-11-17T01:22:41.869Z,7.68
2017-11-17T01:23:41.882Z,7.55
2017-11-17T01:24:41.894Z,7.63
2017-11-17T01:25:41.905Z,7.61
2017-11-17T01:26:41.922Z,7.67
2017-11-17T01:27:41.932Z,7.61
2017-11-17T01:28:41.984Z,7.64
2017-11-17T01:29:42.008Z,7.68
2017-11-17T01:30:41.983Z,7.69
2017-11-17T01:31:42.021Z,7.61
2017-11-17T01:32:42.036Z,7.75
2017-11-17T01:33:42.138Z,7.6
2017-11-17T01:34:42.068Z,7.63
2017-11-17T01:35:56.741Z,7.61
2017-11-17T01:36:42.129Z,7.6
2017-11-17T01:37:42.133Z,7.67
2017-11-17T01:38:42.135Z,7.67
2017-11-17T01:39:56.813Z,7.75
2017-11-17T01:40:42.165Z,7.61
2017-11-17T01:41:42.185Z,7.61
2017-11-17T01:42:42.198Z,7.63
2017-11-17T01:43:56.898Z,7.61
2017-11-17T01:44:42.246Z,7.77
2017-11-17T01:45:42.243Z,7.57
2017-11-17T01:46:42.275Z,7.63
2017-11-17T01:47:42.297Z,7.71
2017-11-17T01:48:42.321Z,7.68
2017-11-17T01:49:42.339Z,7.55
2017-11-17T01:50:57.020Z,7.6
2017-11-17T01:51:42.367Z,7.61
2017-11-17T01:52:42.128Z,7.52
2017-11-17T01:53:42.153Z,7.58
2017-11-17T01:54:42.415Z,7.63
2017-11-17T01:56:42.449Z,7.57
2017-11-17T01:57:42.467Z,7.58
2017-11-17T01:58:42.489Z,7.64
2017-11-17T01:59:57.178Z,7.61
2017-11-17T02:00:57.206Z,7.58
2017-11-17T02:01:42.273Z,7.5
2017-11-17T02:02:42.582Z,7.52
2017-11-17T02:03:42.566Z,7.5
2017-11-17T02:04:42.587Z,7.52
2017-11-17T02:05:42.616Z,7.46
2017-11-17T02:06:42.632Z,7.46
2017-11-17T02:07:42.645Z,7.49
2017-11-17T02:08:42.661Z,7.49
2017-11-17T02:09:42.673Z,7.52
2017-11-17T02:10:42.695Z,7.45
2017-11-17T02:11:42.722Z,7.49
2017-11-17T02:12:42.738Z,7.46
2017-11-17T02:13:42.754Z,7.46
2017-11-17T02:14:42.767Z,7.48
2017-11-17T02:16:42.803Z,7.5
2017-11-17T02:17:42.837Z,7.52
2017-11-17T02:18:42.867Z,7.48
2017-11-17T02:19:42.869Z,7.49
2017-11-17T02:20:42.893Z,7.6
2017-11-17T02:21:42.904Z,7.57
2017-11-17T02:22:57.587Z,7.61
2017-11-17T02:23:42.936Z,7.58
2017-11-17T02:24:42.944Z,7.61
2017-11-17T02:25:42.985Z,7.57
2017-11-17T02:26:42.980Z,7.5
2017-11-17T02:28:43.020Z,7.53
2017-11-17T02:29:43.031Z,7.53
2017-11-17T02:30:43.054Z,7.48
2017-11-17T02:31:43.090Z,7.45
2017-11-17T02:32:43.088Z,7.5
2017-11-17T02:33:43.121Z,7.48
2017-11-17T02:34:43.130Z,7.48
2017-11-17T02:35:43.152Z,7.48
2017-11-17T02:36:43.156Z,7.5
2017-11-17T02:37:43.169Z,7.49
2017-11-17T02:38:57.866Z,7.43
2017-11-17T02:39:43.227Z,7.52
2017-11-17T02:40:42.983Z,7.49
2017-11-17T02:41:57.903Z,7.5
2017-11-17T02:42:57.956Z,7.49
2017-11-17T02:43:43.306Z,7.5
2017-11-17T02:44:43.340Z,7.61
2017-11-17T02:47:43.346Z,7.6
2017-11-17T02:48:43.383Z,7.6
2017-11-17T02:49:43.385Z,7.68
2017-11-17T02:50:43.434Z,7.49
2017-11-17T02:52:43.447Z,7.49
2017-11-17T02:53:43.457Z,7.5
2017-11-17T02:54:58.146Z,7.58
2017-11-17T02:55:43.491Z,7.57
2017-11-17T02:56:43.515Z,7.55
2017-11-17T02:57:43.542Z,7.61
2017-11-17T02:58:43.561Z,7.49
2017-11-17T02:59:43.555Z,7.52
2017-11-17T03:00:43.593Z,7.55
2017-11-17T03:01:43.606Z,7.61
2017-11-17T03:02:43.350Z,7.61
2017-11-17T03:03:43.630Z,7.69
2017-11-17T03:04:43.670Z,7.68
2017-11-17T03:05:43.654Z,7.61
2017-11-17T03:06:43.677Z,7.68
2017-11-17T03:07:43.708Z,7.61
2017-11-17T03:08:43.707Z,7.67
2017-11-17T03:09:43.751Z,7.5
2017-11-17T03:10:58.430Z,7.6
2017-11-17T03:11:43.764Z,7.63
2017-11-17T03:12:43.792Z,7.53
2017-11-17T03:13:43.820Z,7.58
2017-11-17T03:14:43.838Z,7.71
2017-11-17T03:15:43.829Z,7.55
2017-11-17T03:16:43.866Z,7.63
2017-11-17T03:17:43.988Z,7.6
2017-11-17T03:18:43.915Z,7.6
2017-11-17T03:19:43.909Z,7.68
2017-11-17T03:20:43.932Z,7.64
2017-11-17T03:21:43.945Z,7.64
2017-11-17T03:22:43.964Z,7.68
2017-11-17T03:23:43.993Z,7.67
2017-11-17T03:24:44.014Z,7.6
2017-11-17T03:25:58.690Z,7.63
2017-11-17T03:27:44.042Z,7.61
2017-11-17T03:28:44.062Z,7.61
2017-11-17T03:30:44.116Z,7.58
2017-11-17T03:31:44.118Z,7.67
2017-11-17T03:32:44.159Z,7.58
2017-11-17T03:33:43.900Z,7.69
2017-11-17T03:34:44.178Z,7.57
2017-11-17T03:35:44.187Z,7.6
2017-11-17T03:37:44.240Z,7.6
2017-11-17T03:38:44.237Z,7.69
2017-11-17T03:39:58.674Z,7.69
2017-11-17T03:40:44.281Z,7.67
2017-11-17T03:41:44.301Z,7.67
2017-11-17T03:42:44.312Z,7.69
2017-11-17T03:43:44.344Z,7.72
2017-11-17T03:44:44.362Z,7.67
2017-11-17T03:45:44.390Z,7.71
2017-11-17T03:46:44.393Z,7.68
2017-11-17T03:47:44.416Z,7.74
2017-11-17T03:48:44.419Z,7.74
2017-11-17T03:49:44.444Z,7.79
2017-11-17T03:50:44.471Z,7.82
2017-11-17T03:51:44.484Z,7.75
2017-11-17T03:52:44.497Z,7.72
2017-11-17T03:53:44.525Z,7.63
2017-11-17T03:54:44.523Z,7.67
2017-11-17T03:55:44.552Z,7.86
2017-11-17T03:56:44.565Z,7.74
2017-11-17T03:57:59.253Z,7.67
2017-11-17T03:58:44.592Z,7.79
2017-11-17T03:59:44.620Z,7.8
2017-11-17T04:00:44.652Z,7.72
2017-11-17T04:01:44.657Z,7.79
2017-11-17T04:02:44.672Z,7.8
2017-11-17T04:03:44.714Z,7.68
2017-11-17T04:04:44.715Z,7.77
2017-11-17T04:05:44.458Z,7.75
2017-11-17T04:06:44.747Z,7.77
2017-11-17T04:07:44.771Z,7.74
2017-11-17T04:08:44.779Z,7.82
2017-11-17T04:09:44.805Z,7.87
2017-11-17T04:10:44.806Z,7.89
2017-11-17T04:11:44.822Z,7.87
2017-11-17T04:12:44.853Z,7.85
2017-11-17T04:13:59.536Z,7.86
2017-11-17T04:14:44.992Z,7.79
2017-11-17T04:15:44.909Z,7.87
2017-11-17T04:16:59.583Z,7.95
2017-11-17T04:17:44.684Z,7.98
2017-11-17T04:18:44.971Z,7.97
2017-11-17T04:19:44.971Z,8.04
2017-11-17T04:21:45.004Z,7.93
2017-11-17T04:22:45.017Z,7.95
2017-11-17T04:23:45.056Z,8.04
2017-11-17T04:24:45.055Z,7.98
2017-11-17T04:25:45.088Z,8.04
2017-11-17T04:26:45.089Z,8.08
2017-11-17T04:29:59.827Z,8.05
2017-11-17T04:30:45.231Z,8.07
2017-11-17T04:31:45.189Z,8.1
2017-11-17T04:32:45.211Z,8.12
2017-11-17T04:33:45.240Z,8.15
2017-11-17T04:34:45.239Z,8.12
2017-11-17T04:35:45.275Z,8.08
2017-11-17T04:37:45.034Z,8.08
2017-11-17T04:38:45.325Z,8.12
2017-11-17T04:39:45.339Z,8.11
2017-11-17T04:40:45.360Z,8.16
2017-11-17T04:41:45.368Z,8.23
2017-11-17T04:43:45.389Z,8.23
2017-11-17T04:44:45.422Z,8.22
2017-11-17T04:46:00.114Z,8.15
2017-11-17T04:46:45.466Z,8.15
2017-11-17T04:47:45.496Z,8.19
2017-11-17T04:48:45.492Z,8.16
2017-11-17T04:49:45.517Z,8.2
2017-11-17T04:50:45.527Z,8.22
2017-11-17T04:51:45.563Z,8.18
2017-11-17T04:52:45.562Z,8.2
2017-11-17T04:54:00.254Z,8.26
2017-11-17T04:55:45.620Z,8.23
2017-11-17T04:56:45.637Z,8.29
2017-11-17T04:57:45.659Z,8.29
2017-11-17T04:58:45.677Z,8.2
2017-11-17T04:59:45.696Z,8.23
2017-11-17T05:01:00.363Z,8.25
2017-11-17T05:01:45.735Z,8.28
2017-11-17T05:02:45.736Z,8.26
2017-11-17T05:03:45.755Z,8.26
2017-11-17T05:05:00.440Z,8.23
2017-11-17T05:05:45.799Z,8.29
2017-11-17T05:06:45.820Z,8.28
2017-11-17T05:07:45.840Z,8.28
2017-11-17T05:08:45.853Z,8.3
2017-11-17T05:09:45.879Z,8.44
2017-11-17T05:10:45.620Z,8.34
2017-11-17T05:12:45.916Z,8.37
2017-11-17T05:13:45.957Z,8.33
2017-11-17T05:14:45.966Z,8.4
2017-11-17T05:15:45.980Z,8.33
2017-11-17T05:16:45.988Z,8.4
2017-11-17T05:17:46.012Z,8.37
2017-11-17T05:18:46.048Z,8.38
2017-11-17T05:19:46.052Z,8.37
2017-11-17T05:21:00.721Z,8.4
2017-11-17T05:21:45.826Z,8.34
2017-11-17T05:22:46.099Z,8.33
2017-11-17T05:23:46.124Z,8.33
2017-11-17T05:24:46.252Z,8.37
2017-11-17T05:25:46.156Z,8.36
2017-11-17T05:26:46.169Z,8.26
2017-11-17T05:27:46.190Z,8.25
2017-11-17T05:28:46.222Z,8.23
2017-11-17T05:29:46.232Z,8.36
2017-11-17T05:30:46.259Z,8.22
2017-11-17T05:31:46.248Z,8.22
2017-11-17T05:33:00.935Z,8.12
2017-11-17T05:33:46.299Z,8.26
2017-11-17T05:34:46.317Z,8.11
2017-11-17T05:35:46.125Z,8.08
2017-11-17T05:36:46.351Z,8.05
2017-11-17T05:37:46.363Z,8.04
2017-11-17T05:38:46.123Z,8.04
2017-11-17T05:39:46.416Z,8.08
2017-11-17T05:40:46.411Z,8.1
2017-11-17T05:41:46.450Z,8.08
2017-11-17T05:42:46.471Z,8.07
2017-11-17T05:43:46.484Z,8.07
2017-11-17T05:44:46.490Z,8.11
2017-11-17T05:45:46.500Z,8.07
2017-11-17T05:46:46.517Z,8.07
2017-11-17T05:47:46.549Z,8.11
2017-11-17T05:49:01.235Z,8.2
2017-11-17T05:49:46.581Z,8.22
2017-11-17T05:50:46.598Z,8.29
2017-11-17T05:51:46.620Z,8.18
2017-11-17T05:52:46.643Z,8.26
2017-11-17T05:53:46.665Z,8.29
2017-11-17T05:54:46.673Z,8.29
2017-11-17T05:55:46.686Z,8.2
2017-11-17T05:56:46.700Z,8.36
2017-11-17T05:57:46.722Z,8.37
2017-11-17T05:58:46.754Z,8.33
2017-11-17T05:59:46.749Z,8.25
2017-11-17T06:00:46.794Z,8.28
2017-11-17T06:01:46.785Z,8.38
2017-11-17T06:05:01.510Z,8.36
2017-11-17T06:05:46.869Z,8.36
2017-11-17T06:06:46.874Z,8.38
2017-11-17T06:07:46.919Z,8.26
2017-11-17T06:08:46.925Z,8.26
2017-11-17T06:09:47.060Z,8.19
2017-11-17T06:11:46.969Z,8.08
2017-11-17T06:12:46.989Z,8.04
2017-11-17T06:13:47.027Z,8.08
2017-11-17T06:15:47.046Z,8.07
2017-11-17T06:16:46.808Z,8.08
2017-11-17T06:17:47.112Z,8.08
2017-11-17T06:18:47.112Z,8.12
2017-11-17T06:19:47.152Z,8.15
2017-11-17T06:21:01.548Z,8.1
2017-11-17T06:21:47.150Z,8.22
2017-11-17T06:22:47.180Z,8.11
2017-11-17T06:23:47.183Z,8.18
2017-11-17T06:24:47.223Z,8.16
2017-11-17T06:25:47.235Z,8.23
2017-11-17T06:26:47.251Z,8.33
2017-11-17T06:27:47.251Z,8.23
2017-11-17T06:28:47.289Z,8.22
2017-11-17T06:29:47.304Z,8.25
2017-11-17T06:30:47.057Z,8.22
2017-11-17T06:32:47.355Z,8.04
2017-11-17T06:33:46.847Z,8.08
2017-11-17T06:34:47.382Z,8.08
2017-11-17T06:36:02.080Z,8.08
2017-11-17T06:37:47.431Z,8.12
2017-11-17T06:38:47.196Z,8.1
2017-11-17T06:39:47.476Z,8.1
2017-11-17T06:40:47.484Z,8.02
2017-11-17T06:42:02.183Z,8.04
2017-11-17T06:42:47.628Z,8.07
2017-11-17T06:43:47.553Z,8.02
2017-11-17T06:44:47.616Z,7.92
2017-11-17T06:46:02.247Z,7.86
2017-11-17T06:46:47.588Z,7.75
2017-11-17T06:47:47.621Z,7.87
2017-11-17T06:48:47.642Z,7.8
2017-11-17T06:49:47.665Z,7.8
2017-11-17T06:50:47.404Z,7.83
2017-11-17T06:51:47.433Z,7.75
2017-11-17T06:52:47.715Z,7.75
2017-11-17T06:53:47.830Z,7.67
2017-11-17T06:54:47.743Z,7.71
2017-11-17T06:55:47.765Z,7.69
2017-11-17T06:57:02.434Z,7.58
2017-11-17T06:57:47.789Z,7.58
2017-11-17T06:58:47.810Z,7.63
2017-11-17T06:59:47.851Z,7.57
2017-11-17T07:00:47.838Z,7.64
2017-11-17T07:01:47.866Z,7.6
2017-11-17T07:02:47.883Z,7.6
2017-11-17T07:03:47.905Z,7.71
2017-11-17T07:04:47.926Z,7.6
2017-11-17T07:05:47.953Z,7.55
2017-11-17T07:08:02.641Z,7.71
2017-11-17T07:08:47.992Z,7.68
2017-11-17T07:09:48.005Z,7.67
2017-11-17T07:10:48.022Z,7.57
2017-11-17T07:11:48.040Z,7.58
2017-11-17T07:13:48.104Z,7.68
2017-11-17T07:14:48.108Z,7.6
2017-11-17T07:15:47.592Z,7.5
2017-11-17T07:16:48.135Z,7.58
2017-11-17T07:18:02.820Z,7.48
2017-11-17T07:18:48.165Z,7.49
2017-11-17T07:20:48.206Z,7.49
2017-11-17T07:21:48.228Z,7.46
2017-11-17T07:22:48.247Z,7.5
2017-11-17T07:24:02.919Z,7.5
2017-11-17T07:25:02.933Z,7.53
2017-11-17T07:25:48.304Z,7.5
2017-11-17T07:26:48.365Z,7.5
2017-11-17T07:27:48.328Z,7.5
2017-11-17T07:28:48.616Z,7.49
2017-11-17T07:30:03.059Z,7.53
2017-11-17T07:30:48.380Z,7.49
2017-11-17T07:31:48.434Z,7.49
2017-11-17T07:32:48.432Z,7.53
2017-11-17T07:33:48.447Z,7.52
2017-11-17T07:34:48.489Z,7.52
2017-11-17T07:35:48.480Z,7.48
2017-11-17T07:36:48.503Z,7.49
2017-11-17T07:37:48.537Z,7.5
2017-11-17T07:38:48.535Z,7.49
2017-11-17T07:40:03.223Z,7.57
2017-11-17T07:40:48.679Z,7.58
2017-11-17T07:42:48.364Z,7.53
2017-11-17T07:44:03.288Z,7.49
2017-11-17T07:44:48.653Z,7.5
2017-11-17T07:45:48.772Z,7.5
2017-11-17T07:46:48.711Z,7.45
2017-11-17T07:47:48.698Z,7.58
2017-11-17T07:48:48.722Z,7.53
2017-11-17T07:49:48.753Z,7.63
2017-11-17T07:50:48.765Z,7.68
2017-11-17T07:51:48.776Z,7.61
2017-11-17T07:52:48.856Z,7.53
2017-11-17T07:53:48.820Z,7.63
2017-11-17T07:54:48.841Z,7.57
2017-11-17T07:56:03.514Z,7.48
2017-11-17T07:56:48.965Z,7.5
2017-11-17T07:57:48.875Z,7.53
2017-11-17T07:58:48.900Z,7.58
2017-11-17T07:59:48.917Z,7.46
2017-11-17T08:00:48.954Z,7.61
2017-11-17T08:01:48.963Z,7.48
2017-11-17T08:02:48.699Z,7.58
2017-11-17T08:03:49.014Z,7.55
2017-11-17T08:04:49.008Z,7.57
2017-11-17T08:05:48.758Z,7.55
2017-11-17T08:06:49.049Z,7.58
2017-11-17T08:07:49.054Z,7.64
2017-11-17T08:10:03.767Z,7.67
2017-11-17T08:11:03.778Z,7.6
2017-11-17T08:11:49.153Z,7.75
2017-11-17T08:12:49.154Z,7.67
2017-11-17T08:13:49.178Z,7.77
2017-11-17T08:14:49.180Z,7.8
2017-11-17T08:15:49.208Z,7.83
2017-11-17T08:16:49.235Z,7.86
2017-11-17T08:17:48.996Z,7.79
2017-11-17T08:18:49.268Z,7.85
2017-11-17T08:20:49.300Z,7.85
2017-11-17T08:21:49.319Z,7.89
2017-11-17T08:22:49.086Z,7.83
2017-11-17T08:24:03.755Z,7.92
2017-11-17T08:24:49.378Z,7.97
2017-11-17T08:25:49.398Z,8.05
2017-11-17T08:26:49.407Z,8.05
2017-11-17T08:27:49.438Z,8.01
2017-11-17T08:28:49.457Z,8.04
2017-11-17T08:29:49.482Z,8.08
2017-11-17T08:30:49.506Z,8.1
2017-11-17T08:32:04.171Z,8
2017-11-17T08:33:49.547Z,8.07
2017-11-17T08:35:49.595Z,8.08
2017-11-17T08:36:49.591Z,8.07
2017-11-17T08:38:49.611Z,7.98
2017-11-17T08:40:04.308Z,8.07
2017-11-17T08:40:49.680Z,8.04
2017-11-17T08:41:49.687Z,8.11
2017-11-17T08:43:04.375Z,8.04
2017-11-17T08:44:49.747Z,8.12
2017-11-17T08:45:49.813Z,8.07
2017-11-17T08:46:49.777Z,8.1
2017-11-17T08:47:49.812Z,8.08
2017-11-17T08:48:49.855Z,8.22
2017-11-17T08:50:04.500Z,8.19
2017-11-17T08:50:49.871Z,8.05
2017-11-17T08:51:49.887Z,8.1
2017-11-17T08:52:49.893Z,8.04
2017-11-17T08:53:49.923Z,8.1
2017-11-17T08:54:49.935Z,8.07
2017-11-17T08:55:49.968Z,8.22
2017-11-17T08:56:49.986Z,8.2
2017-11-17T08:57:50.000Z,8.19
2017-11-17T08:59:04.668Z,8.28
2017-11-17T09:00:04.701Z,8.23
2017-11-17T09:00:50.050Z,8.23
2017-11-17T09:01:50.077Z,8.22
2017-11-17T09:02:50.095Z,8.23
2017-11-17T09:03:50.100Z,8.2
2017-11-17T09:04:50.134Z,8.23
2017-11-17T09:05:49.869Z,8.25
2017-11-17T09:06:50.166Z,8.1
2017-11-17T09:07:49.928Z,8.07
2017-11-17T09:08:50.192Z,8.25
2017-11-17T09:09:50.242Z,8.23
2017-11-17T09:10:50.234Z,8.28
2017-11-17T09:11:50.250Z,8.44
2017-11-17T09:13:04.944Z,8.4
2017-11-17T09:13:50.293Z,8.38
2017-11-17T09:15:04.976Z,8.41
2017-11-17T09:15:50.330Z,8.43
2017-11-17T09:16:50.328Z,8.43
2017-11-17T09:17:50.353Z,8.38
2017-11-17T09:18:50.395Z,8.38
2017-11-17T09:19:50.402Z,8.38
2017-11-17T09:20:50.437Z,8.34
2017-11-17T09:21:50.199Z,8.36
2017-11-17T09:22:50.442Z,8.44
2017-11-17T09:23:50.234Z,8.3
2017-11-17T09:24:50.226Z,8.44
2017-11-17T09:25:50.508Z,8.28
2017-11-17T09:27:05.189Z,8.28
2017-11-17T09:27:50.557Z,8.34
2017-11-17T09:28:50.553Z,8.33
2017-11-17T09:29:50.076Z,8.4
2017-11-17T09:31:05.004Z,8.3
2017-11-17T09:31:50.378Z,8.34
2017-11-17T09:32:50.647Z,8.55
2017-11-17T09:33:50.664Z,8.36
2017-11-17T09:35:50.693Z,8.38
2017-11-17T09:37:05.378Z,8.52
2017-11-17T09:37:50.735Z,8.44
2017-11-17T09:38:50.755Z,8.5
2017-11-17T09:39:50.755Z,8.47
2017-11-17T09:40:50.801Z,8.45
2017-11-17T09:41:50.817Z,8.37
2017-11-17T09:42:50.851Z,8.43
2017-11-17T09:43:50.848Z,8.48
2017-11-17T09:45:05.540Z,8.38
2017-11-17T09:46:05.294Z,8.34
2017-11-17T09:46:50.917Z,8.37
2017-11-17T09:47:50.925Z,8.47
2017-11-17T09:48:51.052Z,8.55
2017-11-17T09:49:50.969Z,8.66
2017-11-17T09:50:51.080Z,8.63
2017-11-17T09:53:05.678Z,8.65
2017-11-17T09:53:51.040Z,8.55
2017-11-17T09:54:51.076Z,8.62
2017-11-17T09:55:51.094Z,8.65
2017-11-17T09:56:51.112Z,8.71
2017-11-17T09:58:05.787Z,8.55
2017-11-17T09:58:51.159Z,8.71
2017-11-17T09:59:51.163Z,8.59
2017-11-17T10:00:51.162Z,8.55
2017-11-17T10:01:51.187Z,8.62
2017-11-17T10:02:51.238Z,8.61
2017-11-17T10:03:51.239Z,8.68
2017-11-17T10:04:51.242Z,8.63
2017-11-17T10:05:51.380Z,8.62
2017-11-17T10:06:51.279Z,8.61
2017-11-17T10:07:51.308Z,8.66
2017-11-17T10:08:51.328Z,8.65
2017-11-17T10:09:51.336Z,8.7
2017-11-17T10:11:06.022Z,8.77
2017-11-17T10:11:51.393Z,8.73
2017-11-17T10:12:51.433Z,8.59
2017-11-17T10:14:51.434Z,8.66
2017-11-17T10:15:51.475Z,8.55
2017-11-17T10:16:51.482Z,8.65
2017-11-17T10:18:06.155Z,8.53
2017-11-17T10:18:51.528Z,8.59
2017-11-17T10:19:51.553Z,8.65
2017-11-17T10:20:51.557Z,8.7
2017-11-17T10:21:51.580Z,8.79
2017-11-17T10:22:51.580Z,8.77
2017-11-17T10:23:51.625Z,8.73
2017-11-17T10:24:51.659Z,8.83
2017-11-17T10:26:06.308Z,8.83
2017-11-17T10:26:51.696Z,8.86
2017-11-17T10:27:51.695Z,8.92
2017-11-17T10:29:51.475Z,8.77
2017-11-17T10:30:51.737Z,8.77
2017-11-17T10:31:51.761Z,8.8
2017-11-17T10:32:51.793Z,8.8
2017-11-17T10:34:06.449Z,8.87
2017-11-17T10:34:51.845Z,8.83
2017-11-17T10:35:51.835Z,8.86
2017-11-17T10:36:51.871Z,8.94
2017-11-17T10:37:51.875Z,8.87
2017-11-17T10:38:51.894Z,8.84
2017-11-17T10:39:51.926Z,8.92
2017-11-17T10:40:51.935Z,8.83
2017-11-17T10:42:06.612Z,9.01
2017-11-17T10:42:51.987Z,9.04
2017-11-17T10:43:51.990Z,9.21
2017-11-17T10:44:52.018Z,9.29
2017-11-17T10:45:52.029Z,9.29
2017-11-17T10:46:52.052Z,9.31
2017-11-17T10:47:52.068Z,9.24
2017-11-17T10:48:52.079Z,9.24
2017-11-17T10:50:52.123Z,9.23
2017-11-17T10:51:52.160Z,9.31
2017-11-17T10:52:51.898Z,9.28
2017-11-17T10:54:06.831Z,9.28
2017-11-17T10:55:06.855Z,9.24
2017-11-17T10:55:52.211Z,9.29
2017-11-17T10:56:52.243Z,9.18
2017-11-17T10:57:52.259Z,9.13
2017-11-17T10:58:52.276Z,9.26
2017-11-17T10:59:52.338Z,9.29
2017-11-17T11:00:52.412Z,9.32
2017-11-17T11:01:52.350Z,9.31
2017-11-17T11:02:52.340Z,9.39
2017-11-17T11:03:52.390Z,9.48
2017-11-17T11:04:52.129Z,9.48
2017-11-17T11:06:07.086Z,9.48
2017-11-17T11:06:52.461Z,9.47
2017-11-17T11:07:52.466Z,9.42
2017-11-17T11:08:52.469Z,9.43
2017-11-17T11:09:52.488Z,9.6
2017-11-17T11:10:52.497Z,9.6
2017-11-17T11:11:52.520Z,9.57
2017-11-17T11:12:52.285Z,9.58
2017-11-17T11:13:52.580Z,9.58
2017-11-17T11:14:52.577Z,9.46
2017-11-17T11:15:52.603Z,9.35
2017-11-17T11:16:52.634Z,9.35
2017-11-17T11:17:52.662Z,9.29
2017-11-17T11:19:07.309Z,9.26
2017-11-17T11:19:52.677Z,9.28
2017-11-17T11:21:07.349Z,9.39
2017-11-17T11:21:52.727Z,9.29
2017-11-17T11:22:52.740Z,9.36
2017-11-17T11:23:52.749Z,9.43
2017-11-17T11:24:52.770Z,9.39
2017-11-17T11:25:52.796Z,9.33
2017-11-17T11:26:52.556Z,9.39
2017-11-17T11:27:52.838Z,9.36
2017-11-17T11:28:52.860Z,9.29
2017-11-17T11:29:52.860Z,9.32
2017-11-17T11:30:52.891Z,9.29
2017-11-17T11:32:52.931Z,9.28
2017-11-17T11:33:52.951Z,9.24
2017-11-17T11:34:52.972Z,9.15
2017-11-17T11:35:52.987Z,9.17
2017-11-17T11:36:52.729Z,9.18
2017-11-17T11:37:53.035Z,9.35
2017-11-17T11:38:53.047Z,9.31
2017-11-17T11:39:53.079Z,9.33
2017-11-17T11:40:53.083Z,9.21
2017-11-17T11:41:53.110Z,9.33
2017-11-17T11:43:53.162Z,9.33
2017-11-17T11:44:53.162Z,9.35
2017-11-17T11:45:53.180Z,9.42
2017-11-17T11:46:53.206Z,9.35
2017-11-17T11:47:53.220Z,9.32
2017-11-17T11:48:53.314Z,9.32
2017-11-17T11:49:53.258Z,9.47
2017-11-17T11:50:53.030Z,9.46
2017-11-17T11:51:53.402Z,9.46
2017-11-17T11:53:07.982Z,9.53
2017-11-17T11:53:53.335Z,9.42
2017-11-17T11:54:53.347Z,9.56
2017-11-17T11:55:53.112Z,9.57
2017-11-17T11:56:53.392Z,9.56
2017-11-17T11:57:53.400Z,9.43
2017-11-17T11:58:53.436Z,9.51
2017-11-17T11:59:53.453Z,9.46
2017-11-17T12:00:53.474Z,9.46
2017-11-17T12:02:08.155Z,9.57
2017-11-17T12:02:53.538Z,9.46
2017-11-17T12:03:53.521Z,9.43
2017-11-17T12:04:53.384Z,9.43
2017-11-17T12:05:53.550Z,9.48
2017-11-17T12:06:53.574Z,9.65
2017-11-17T12:07:53.590Z,9.57
2017-11-17T12:09:08.295Z,9.47
2017-11-17T12:09:53.644Z,9.43
2017-11-17T12:10:53.665Z,9.58
2017-11-17T12:11:53.673Z,9.64
2017-11-17T12:12:53.741Z,9.68
2017-11-17T12:13:53.460Z,9.57
2017-11-17T12:14:53.742Z,9.6
2017-11-17T12:15:53.752Z,9.65
2017-11-17T12:16:53.771Z,9.72
2017-11-17T12:17:53.787Z,9.86
2017-11-17T12:18:53.826Z,9.72
2017-11-17T12:20:08.510Z,9.72
2017-11-17T12:20:53.840Z,9.64
2017-11-17T12:21:53.611Z,9.83
2017-11-17T12:22:53.909Z,9.91
2017-11-17T12:23:53.651Z,9.83
2017-11-17T12:25:08.601Z,9.86
2017-11-17T12:25:53.943Z,9.81
2017-11-17T12:26:53.699Z,9.89
2017-11-17T12:27:53.991Z,9.91
2017-11-17T12:29:54.041Z,9.94
2017-11-17T12:30:54.050Z,9.9
2017-11-17T12:31:54.065Z,9.76
2017-11-17T12:32:54.088Z,9.81
2017-11-17T12:33:54.116Z,9.75
2017-11-17T12:34:53.863Z,9.86
2017-11-17T12:35:54.152Z,9.78
2017-11-17T12:36:54.154Z,9.76
2017-11-17T12:37:54.180Z,9.83
2017-11-17T12:38:54.210Z,9.78
2017-11-17T12:39:54.235Z,9.89
2017-11-17T12:41:08.909Z,9.9
2017-11-17T12:42:08.908Z,9.86
2017-11-17T12:42:54.282Z,9.97
2017-11-17T12:43:54.300Z,9.94
2017-11-17T12:44:54.311Z,9.89
2017-11-17T12:45:55.887Z,9.94
2017-11-17T12:46:54.092Z,10.05
2017-11-17T12:47:54.373Z,9.97
2017-11-17T12:49:54.159Z,10.05
2017-11-17T12:50:54.434Z,10.05
2017-11-17T12:51:54.462Z,10.2
2017-11-17T12:52:54.489Z,9.97
2017-11-17T12:53:54.495Z,9.94
2017-11-17T12:54:54.510Z,9.96
2017-11-17T12:56:09.188Z,9.87
2017-11-17T12:56:54.527Z,9.89
2017-11-17T12:57:54.678Z,9.87
2017-11-17T12:58:54.581Z,9.91
2017-11-17T13:00:09.272Z,9.93
2017-11-17T13:00:54.634Z,10.01
2017-11-17T13:02:54.675Z,9.87
2017-11-17T13:03:54.688Z,9.87
2017-11-17T13:04:54.701Z,9.86
2017-11-17T13:05:54.731Z,9.74
2017-11-17T13:06:54.732Z,9.64
2017-11-17T13:07:54.504Z,9.71
2017-11-17T13:08:54.771Z,9.76
2017-11-17T13:09:54.547Z,9.83
2017-11-17T13:10:54.816Z,9.86
2017-11-17T13:11:54.587Z,9.66
2017-11-17T13:12:54.597Z,9.75
2017-11-17T13:15:54.651Z,9.69
2017-11-17T13:16:54.938Z,9.86
2017-11-17T13:18:09.366Z,9.91
2017-11-17T13:18:54.980Z,9.94
2017-11-17T13:19:54.995Z,10.07
2017-11-17T13:20:54.761Z,9.97
2017-11-17T13:21:55.015Z,10.09
2017-11-17T13:22:55.050Z,10.09
2017-11-17T13:23:55.059Z,9.91
2017-11-17T13:25:09.738Z,9.96
2017-11-17T13:25:55.125Z,9.99
2017-11-17T13:26:54.866Z,9.99
2017-11-17T13:28:09.552Z,9.91
2017-11-17T13:28:55.209Z,9.81
2017-11-17T13:29:55.199Z,9.79
2017-11-17T13:32:09.901Z,9.79
2017-11-17T13:32:55.249Z,9.83
2017-11-17T13:34:55.268Z,9.79
2017-11-17T13:35:55.300Z,9.78
2017-11-17T13:36:55.313Z,9.87
2017-11-17T13:37:55.354Z,9.84
2017-11-17T13:38:55.376Z,9.86
2017-11-17T13:39:55.393Z,9.86
2017-11-17T13:40:55.390Z,9.83
2017-11-17T13:41:55.418Z,9.65
2017-11-17T13:42:55.460Z,9.64
2017-11-17T13:44:10.127Z,9.61
2017-11-17T13:44:55.487Z,9.6
2017-11-17T13:45:55.495Z,9.54
2017-11-17T13:46:55.510Z,9.57
2017-11-17T13:47:55.524Z,9.58
2017-11-17T13:48:55.573Z,9.65
2017-11-17T13:50:10.238Z,9.6
2017-11-17T13:50:55.613Z,9.61
2017-11-17T13:51:55.605Z,9.64
2017-11-17T13:52:55.650Z,9.46
2017-11-17T13:53:55.657Z,9.54
2017-11-17T13:54:55.661Z,9.4
2017-11-17T13:55:55.433Z,9.42
2017-11-17T13:56:55.694Z,9.57
2017-11-17T13:57:55.753Z,9.56
2017-11-17T13:58:55.756Z,9.42
2017-11-17T14:00:10.434Z,9.43
2017-11-17T14:00:55.793Z,9.47
2017-11-17T14:01:55.809Z,9.4
2017-11-17T14:02:55.550Z,9.39
2017-11-17T14:03:55.859Z,9.4
2017-11-17T14:05:55.631Z,9.4
2017-11-17T14:07:10.556Z,9.38
2017-11-17T14:07:55.935Z,9.35
2017-11-17T14:08:55.675Z,9.42
2017-11-17T14:10:55.977Z,9.39
2017-11-17T14:11:56.001Z,9.23
2017-11-17T14:12:56.034Z,9.28
2017-11-17T14:14:10.687Z,9.17
2017-11-17T14:16:10.751Z,9.18
2017-11-17T14:16:56.108Z,9.15